Flight Track Log - Related Links

Times and Time Zones

All times are in EDT time to prevent confusion due to time zone crossing. See the N273SK flight status page for this flight to view local times or setup timezone preferences in your user account.

Time Position Orientation Groundspeed Altitude Reporting Facility
EDT Latitude Longitude Course Direction KTS MPH feet Rate Location/Type
Sun 08:09:50 AM 38.0078 -84.6358 90° East 155 178 2,800  Level Indianapolis Center
Sun 08:10:51 AM 37.9661 -84.6625 207° Southwest 196 226 4,900 1,967 Climbing Indianapolis Center
Sun 08:11:52 AM 37.9422 -84.5897 113° Southeast 248 285 6,800 2,115 Climbing Indianapolis Center
Sun 08:12:00 AM 37.9500 -84.2081 90° East  Level FlightAware
Sun 08:12:53 AM 37.9394 -84.4933 92° East 267 307 9,200  Level Indianapolis Center
Sun 08:13:00 AM 37.9448 -84.0656 96° East  Level FlightAware
Sun 08:13:54 AM 37.9369 -84.3875 92° East 294 338 10,700  Level Indianapolis Center
Sun 08:14:00 AM 37.9339 -83.9234 96° East  Level FlightAware
Sun 08:14:55 AM 37.9328 -84.2647 92° East 340 391 12,200  Level Indianapolis Center
Sun 08:15:00 AM 37.9333 -83.7877 90° East  Level FlightAware
Sun 08:15:57 AM 37.9286 -84.1367 92° East 362 417 14,300  Level Indianapolis Center
Sun 08:16:58 AM 37.9231 -84.0081 93° East 364 419 15,800 1,475 Climbing Indianapolis Center
Sun 08:17:59 AM 37.9186 -83.8753 92° East 374 430 17,300 1,574 Climbing Indianapolis Center
Sun 08:19:00 AM 37.9131 -83.7403 93° East 382 440 19,000 2,016 Climbing Indianapolis Center
Sun 08:20:01 AM 37.9069 -83.5822 93° East 384 442 21,400 2,164 Climbing Indianapolis Center
Sun 08:21:02 AM 37.9017 -83.4511 93° East 375 432 23,400 1,721 Climbing Indianapolis Center
Sun 08:22:03 AM 37.8958 -83.3194 93° East 373 429 24,900 1,426 Climbing Indianapolis Center
Sun 08:23:04 AM 37.8903 -83.1853 93° East 379 436 26,300 1,672 Climbing Indianapolis Center
Sun 08:24:05 AM 37.8842 -83.0486 93° East 386 444 28,300 1,328 Climbing Indianapolis Center
Sun 08:25:06 AM 37.8781 -82.9161 93° East 378 435 29,000 344 Climbing Indianapolis Center
Sun 08:26:07 AM 37.8714 -82.7694 93° East 407 468 29,000  Level Indianapolis Center
Sun 08:27:08 AM 37.8636 -82.6114 94° East 442 509 29,000  Level Indianapolis Center
Sun 08:28:09 AM 37.8547 -82.4447 94° East 466 536 29,000  Level Indianapolis Center
Sun 08:29:10 AM 37.8469 -82.2731 93° East 482 555 29,000  Level Indianapolis Center
Sun 08:30:11 AM 37.8369 -82.0989 94° East 492 566 29,000  Level Indianapolis Center
Sun 08:31:12 AM 37.8283 -81.9231 93° East 498 573 29,000  Level Indianapolis Center
Sun 08:32:13 AM 37.8175 -81.7464 94° East 500 575 29,000  Level Indianapolis Center
Sun 08:33:15 AM 37.8078 -81.5753 94° East 493 567 29,000  Level Indianapolis Center
Sun 08:34:15 AM 37.7986 -81.4106 94° East 484 557 29,000  Level Indianapolis Center
Sun 08:34:49 AM 37.7872 -81.2942 97° East 483 556 29,000  Level Washington Center
Sun 08:35:49 AM 37.7797 -81.1464 94° East 483 556 29,000  Level Washington Center
Sun 08:36:50 AM 37.7872 -80.9814 87° East 478 550 29,000  Level Washington Center
Sun 08:37:49 AM 37.8017 -80.7958 84° East 478 550 29,000  Level Washington Center
Sun 08:38:50 AM 37.8128 -80.6336 85° East 478 550 29,000  Level Washington Center
Sun 08:39:48 AM 37.8239 -80.4686 85° East 473 544 29,000  Level Washington Center
Sun 08:40:49 AM 37.8347 -80.3011 85° East 473 544 29,000  Level Washington Center
Sun 08:41:49 AM 37.8425 -80.1517 86° East 473 544 29,000  Level Washington Center
Sun 08:42:48 AM 37.8528 -79.9867 85° East 473 544 29,000  Level Washington Center
Sun 08:43:48 AM 37.8631 -79.8189 86° East 473 544 29,000  Level Washington Center
Sun 08:44:49 AM 37.8750 -79.6539 85° East 473 544 29,000  Level Washington Center
Sun 08:45:50 AM 37.8850 -79.4833 86° East 478 550 29,000  Level Washington Center
Sun 08:46:48 AM 37.8922 -79.3153 87° East 478 550 29,000  Level Washington Center
Sun 08:47:50 AM 37.9019 -79.1314 86° East 478 550 29,000  Level Washington Center
Sun 08:48:48 AM 37.9214 -78.9667 81° East 478 550 29,000  Level Washington Center
Sun 08:49:48 AM 37.9406 -78.8014 82° East 478 550 29,000  Level Washington Center
Sun 08:50:49 AM 37.9617 -78.6339 81° East 478 550 29,000  Level Washington Center
Sun 08:51:49 AM 37.9803 -78.4711 82° East 478 550 29,000  Level Washington Center
Sun 08:52:50 AM 37.9983 -78.3244 81° East 478 550 29,000  Level Washington Center
Sun 08:53:50 AM 38.0103 -78.1561 85° East 478 550 29,000  Level Washington Center
Sun 08:54:48 AM 38.0244 -77.9800 84° East 471 542 29,000  Level Washington Center
Sun 08:55:48 AM 38.0339 -77.8169 86° East 466 536 29,000  Level Washington Center
Sun 08:56:48 AM 38.0658 -77.6594 76° East 451 519 29,000  Level Washington Center
Sun 08:57:50 AM 38.1347 -77.5214 58° Northeast 451 519 29,000  Level Washington Center
Sun 08:58:48 AM 38.2017 -77.3806 59° Northeast 451 519 29,000 -153 Level Washington Center
Sun 08:59:48 AM 38.2683 -77.2394 59° Northeast 456 525 28,700 -550 Descending Washington Center
Sun 09:00:48 AM 38.3369 -77.0978 58° Northeast 469 540 27,900 -793 Descending Washington Center
Sun 09:01:49 AM 38.4033 -76.9508 60° Northeast 469 540 27,100 -443 Descending Washington Center
Sun 09:02:50 AM 38.4631 -76.8272 58° Northeast 469 540 27,000 -50 Descending Washington Center
Sun 09:03:50 AM 38.5289 -76.6878 59° Northeast 463 533 27,000  Level Washington Center
Sun 09:04:50 AM 38.5928 -76.5478 60° Northeast 458 527 27,000  Level Washington Center
Sun 09:05:48 AM 38.6561 -76.4106 59° Northeast 458 527 27,000  Level Washington Center
Sun 09:06:50 AM 38.7217 -76.2703 59° Northeast 458 527 27,000  Level Washington Center
Sun 09:07:48 AM 38.7956 -76.1136 59° Northeast 458 527 27,000  Level Washington Center
Sun 09:08:48 AM 38.8606 -75.9783 58° Northeast 458 527 27,000  Level Washington Center
Sun 09:09:49 AM 38.9256 -75.8344 60° Northeast 458 527 27,000  Level Washington Center
Sun 09:10:50 AM 39.0133 -75.7225 45° Northeast 443 510 27,000  Level Washington Center
Sun 09:11:48 AM 39.1114 -75.6317 36° Northeast 438 504 27,000  Level Washington Center
Sun 09:12:48 AM 39.2114 -75.5381 36° Northeast 438 504 27,000 -198 Level Washington Center
Sun 09:13:49 AM 39.3133 -75.4467 35° Northeast 438 504 26,600 -1,082 Descending Washington Center
Sun 09:14:50 AM 39.4175 -75.3525 35° Northeast 445 512 24,800 -1,881 Descending Washington Center
Sun 09:15:47 AM 39.5153 -75.2661 34° Northeast 445 512 22,900 -1,966 Descending Washington Center
Sun 09:16:49 AM 39.6067 -75.1822 35° Northeast 426 490 20,900 -1,967 Descending Washington Center
Sun 09:17:49 AM 39.6917 -75.1033 36° Northeast 389 448 18,900 -1,700 Descending Washington Center
Sun 09:18:49 AM 39.7644 -75.0381 35° Northeast 372 428 17,500 -1,736 Descending Washington Center
Sun 09:19:50 AM 39.8597 -74.9564 33° Northeast 366 421 15,400 -1,866 Descending Washington Center
Sun 09:20:48 AM 39.9322 -74.8825 38° Northeast 384 442 13,800 -1,765 Descending Washington Center
Sun 09:21:49 AM 40.0108 -74.7733 47° Northeast 384 442 11,900 -1,683 Descending Washington Center
Sun 09:22:10 AM 40.0500 -74.7333 38° Northeast 363 418 11,500 -1,333 Descending New TRACON
Sun 09:23:10 AM 40.1000 -74.6333 57° Northeast 347 399 10,100 -700 Descending New TRACON
Sun 09:24:10 AM 40.1667 -74.5333 49° Northeast 343 395 10,100  Level New TRACON
Sun 09:25:10 AM 40.2500 -74.4500 37° Northeast 347 399 10,100 -105 Level New TRACON
Sun 09:26:04 AM 40.3000 -74.3833 45° Northeast 292 336 9,900 -1,150 Descending New TRACON
Sun 09:27:10 AM 40.3667 -74.3167 37° Northeast 267 307 7,800 -1,400 Descending New TRACON
Sun 09:28:04 AM 40.4167 -74.2667 37° Northeast 265 305 7,100 -368 Descending New TRACON
Sun 09:29:04 AM 40.4667 -74.2000 45° Northeast 262 302 7,100 -300 Level New TRACON
Sun 09:30:04 AM 40.5333 -74.1500 30° Northeast 252 290 6,500 -1,000 Descending New TRACON
Sun 09:31:04 AM 40.5833 -74.0833 45° Northeast 241 277 5,100 -1,200 Descending New TRACON
Sun 09:32:04 AM 40.6333 -74.0500 27° Northeast 235 270 4,100 -500 Descending New TRACON
Sun 09:33:04 AM 40.7167 -74.0333 North 269 310 4,100 -500 Level New TRACON
Sun 09:34:04 AM 40.7833 -74.0000 21° North 260 299 3,100 -500 Descending New TRACON
Sun 09:35:04 AM 40.8500 -73.9500 30° Northeast 256 295 3,100  Level New TRACON
Sun 09:36:04 AM 40.8833 -73.9000 49° Northeast 202 232 3,100 -50 Level New TRACON
Sun 09:37:04 AM 40.9167 -73.8333 56° Northeast 199 229 3,000 -500 Descending New TRACON
Sun 09:38:04 AM 40.9000 -73.7833 114° Southeast 208 239 2,100 -600 Descending New TRACON
Sun 09:39:04 AM 40.8500 -73.8167 207° Southwest 179 206 1,800 -300 Descending New TRACON

Login

Don't have an account? Register now (free) for customized features, flight alerts, and more!